Time;durP1;ratioP1;P1;durP2;ratioP2;P2;SDS_P1;SDS_P2;PMS_P1;PMS_P2;Temp;Humidity;BMP_temperature;BMP_pressure;BME280_temperature;BME280_humidity;BME280_pressure;Samples;Min_cycle;Max_cycle;Signal;HPM_P1;HPM_P2
2021/12/31 00:00:35;;;;;;;;;;;5.90;99.90;;;;;;4987600;28;19929;-67
2021/12/31 00:03:02;;;;;;;;;;;5.90;99.90;;;;;;4989162;28;20285;-69
2021/12/31 00:05:29;;;;;;;;;;;6.00;99.90;;;;;;4987482;28;19944;-67
2021/12/31 00:07:56;;;;;;;;;;;6.00;99.90;;;;;;4989245;28;19929;-70
2021/12/31 00:10:23;;;;;;;;;;;5.90;99.90;;;;;;4986383;28;19936;-66
2021/12/31 00:12:49;;;;;;;;;;;5.90;99.90;;;;;;4986051;28;20009;-67
2021/12/31 00:15:16;;;;;;;;;;;6.00;99.90;;;;;;4985896;28;20008;-70
2021/12/31 00:17:43;;;;;;;;;;;6.00;99.90;;;;;;4988822;28;19991;-68
2021/12/31 00:20:17;;;;;;;;;;;6.00;99.90;;;;;;4987596;28;19925;-66
2021/12/31 00:25:26;;;;;;;;;;;6.00;99.90;;;;;;4984011;28;19995;-69
2021/12/31 00:27:53;;;;;;;;;;;6.00;99.90;;;;;;4986719;28;20059;-66
2021/12/31 00:30:21;;;;;;;;;;;6.00;99.90;;;;;;4987169;28;20627;-66
2021/12/31 00:32:48;;;;;;;;;;;6.00;99.90;;;;;;4983536;28;20598;-65
2021/12/31 00:35:17;;;;;;;;;;;6.00;99.90;;;;;;4987952;28;19944;-66
2021/12/31 00:37:44;;;;;;;;;;;6.00;99.90;;;;;;4990315;28;20028;-67
2021/12/31 00:40:12;;;;;;;;;;;5.90;99.90;;;;;;4987668;28;19964;-68
2021/12/31 00:42:39;;;;;;;;;;;5.90;99.90;;;;;;4986783;28;20028;-68
2021/12/31 00:45:07;;;;;;;;;;;5.90;99.90;;;;;;4980897;28;19935;-69
2021/12/31 00:47:34;;;;;;;;;;;5.90;99.90;;;;;;4982627;28;19936;-66
2021/12/31 00:50:01;;;;;;;;;;;5.90;99.90;;;;;;4983865;28;20089;-66
2021/12/31 00:52:27;;;;;;;;;;;5.90;99.90;;;;;;4983620;28;19933;-67
2021/12/31 00:54:54;;;;;;;;;;;5.90;99.90;;;;;;4988629;28;20008;-68
2021/12/31 00:57:21;;;;;;;;;;;6.00;99.90;;;;;;4992202;28;19929;-65
2021/12/31 00:59:48;;;;;;;;;;;5.90;99.90;;;;;;4988742;28;19945;-66
2021/12/31 01:02:16;;;;;;;;;;;5.90;99.90;;;;;;4986888;28;19983;-67
2021/12/31 01:04:43;;;;;;;;;;;5.90;99.90;;;;;;5004587;28;19926;-69
2021/12/31 01:07:10;;;;;;;;;;;5.90;99.90;;;;;;4991233;28;19931;-68
2021/12/31 01:09:37;;;;;;;;;;;5.90;99.90;;;;;;4990783;28;20035;-67
2021/12/31 01:12:07;;;;;;;;;;;5.90;99.90;;;;;;4992966;28;20786;-67
2021/12/31 01:14:37;;;;;;;;;;;6.00;99.90;;;;;;4990371;28;20779;-66
2021/12/31 01:17:08;;;;;;;;;;;6.00;99.90;;;;;;5007364;28;19929;-67
2021/12/31 01:19:48;;;;;;;;;;;6.00;99.90;;;;;;4990771;28;20313;-67
2021/12/31 01:22:16;;;;;;;;;;;6.10;99.90;;;;;;4995168;28;19929;-66
2021/12/31 01:24:43;;;;;;;;;;;6.10;99.90;;;;;;4990348;28;19929;-69
2021/12/31 01:27:11;;;;;;;;;;;6.10;99.90;;;;;;4993671;28;20080;-67
2021/12/31 01:29:38;;;;;;;;;;;6.20;99.90;;;;;;4991754;28;19956;-69
2021/12/31 01:32:05;;;;;;;;;;;6.20;99.90;;;;;;4993781;28;19960;-70
2021/12/31 01:34:32;;;;;;;;;;;6.20;99.90;;;;;;4990418;28;20519;-68
2021/12/31 01:36:59;;;;;;;;;;;6.20;99.90;;;;;;4990058;28;19933;-70
2021/12/31 01:39:26;;;;;;;;;;;6.10;99.90;;;;;;4992022;28;19929;-67
2021/12/31 01:41:56;;;;;;;;;;;6.20;99.90;;;;;;4988699;28;19929;-73
2021/12/31 01:44:26;;;;;;;;;;;6.20;99.90;;;;;;4990863;28;20047;-68
2021/12/31 01:46:54;;;;;;;;;;;6.10;99.90;;;;;;4991456;28;20378;-68
2021/12/31 01:49:22;;;;;;;;;;;6.20;99.90;;;;;;4994092;28;19968;-69
2021/12/31 01:51:49;;;;;;;;;;;6.10;99.90;;;;;;4990905;28;19936;-67
2021/12/31 01:54:16;;;;;;;;;;;6.20;99.90;;;;;;4989380;28;20023;-68
2021/12/31 01:56:43;;;;;;;;;;;6.20;99.90;;;;;;4990204;28;20034;-68
2021/12/31 01:59:10;;;;;;;;;;;6.20;99.90;;;;;;4993820;28;20059;-66
2021/12/31 02:01:37;;;;;;;;;;;6.20;99.90;;;;;;4993242;28;19965;-64
2021/12/31 02:04:05;;;;;;;;;;;6.10;99.90;;;;;;4990524;28;19963;-67
2021/12/31 02:06:34;;;;;;;;;;;6.10;99.90;;;;;;4991895;28;19995;-65
2021/12/31 02:09:01;;;;;;;;;;;6.10;99.90;;;;;;4992940;28;20011;-66
2021/12/31 02:11:28;;;;;;;;;;;6.10;99.90;;;;;;4990750;28;20439;-66
2021/12/31 02:13:55;;;;;;;;;;;6.10;99.90;;;;;;4991561;28;19936;-67
2021/12/31 02:16:22;;;;;;;;;;;6.10;99.90;;;;;;4989060;28;20056;-67
2021/12/31 02:18:50;;;;;;;;;;;6.00;99.90;;;;;;4993116;28;19930;-66
2021/12/31 02:21:17;;;;;;;;;;;6.10;99.90;;;;;;4990341;28;20580;-65
2021/12/31 02:23:46;;;;;;;;;;;6.00;99.90;;;;;;4991765;28;21091;-69
2021/12/31 02:26:13;;;;;;;;;;;6.00;99.90;;;;;;4993672;28;20011;-69
2021/12/31 02:28:40;;;;;;;;;;;6.00;99.90;;;;;;4989553;28;19976;-65
2021/12/31 02:31:07;;;;;;;;;;;6.00;99.90;;;;;;4991720;28;20586;-65
2021/12/31 02:33:34;;;;;;;;;;;6.00;99.90;;;;;;4992652;28;20490;-66
2021/12/31 02:36:02;;;;;;;;;;;6.00;99.90;;;;;;4994642;28;19983;-66
2021/12/31 02:38:29;;;;;;;;;;;6.00;99.90;;;;;;4987582;28;21066;-67
2021/12/31 02:40:56;;;;;;;;;;;6.00;99.90;;;;;;4991007;28;20005;-64
2021/12/31 02:43:23;;;;;;;;;;;6.10;99.90;;;;;;4994101;28;19933;-67
2021/12/31 02:45:50;;;;;;;;;;;6.00;99.90;;;;;;4974515;28;20280;-65
2021/12/31 02:48:24;;;;;;;;;;;6.00;99.90;;;;;;4993266;28;19929;-65
2021/12/31 02:50:53;;;;;;;;;;;6.00;99.90;;;;;;4986024;28;19996;-67
2021/12/31 02:53:22;;;;;;;;;;;6.00;99.90;;;;;;4991046;28;19936;-65
2021/12/31 02:55:53;;;;;;;;;;;6.00;99.90;;;;;;4991422;28;19929;-66
2021/12/31 02:58:20;;;;;;;;;;;6.00;99.90;;;;;;4991937;28;20080;-66
2021/12/31 03:00:46;;;;;;;;;;;6.00;99.90;;;;;;4985861;28;20775;-65
2021/12/31 03:03:14;;;;;;;;;;;6.10;99.90;;;;;;4993879;28;19936;-65
2021/12/31 03:05:41;;;;;;;;;;;6.10;99.90;;;;;;4990530;28;20002;-69
2021/12/31 03:08:10;;;;;;;;;;;6.00;99.90;;;;;;4992720;28;19957;-67
2021/12/31 03:10:38;;;;;;;;;;;6.10;99.90;;;;;;4987472;28;20032;-65
2021/12/31 03:13:06;;;;;;;;;;;6.00;99.90;;;;;;4991774;28;20059;-68
2021/12/31 03:15:33;;;;;;;;;;;6.00;99.90;;;;;;4990303;28;19948;-65
2021/12/31 03:18:03;;;;;;;;;;;6.00;99.90;;;;;;4991910;28;21686;-68
2021/12/31 03:20:43;;;;;;;;;;;6.00;99.90;;;;;;4990667;28;19941;-69
2021/12/31 03:23:10;;;;;;;;;;;6.00;99.90;;;;;;4991228;28;19952;-70
2021/12/31 03:25:37;;;;;;;;;;;6.00;99.90;;;;;;4989434;28;20064;-66
2021/12/31 03:28:04;;;;;;;;;;;6.00;99.90;;;;;;4989727;28;19995;-67
2021/12/31 03:30:31;;;;;;;;;;;6.00;99.90;;;;;;4990694;28;19929;-67
2021/12/31 03:32:58;;;;;;;;;;;5.90;99.90;;;;;;4992796;28;19944;-66
2021/12/31 03:35:24;;;;;;;;;;;5.90;99.90;;;;;;4988702;28;20029;-69
2021/12/31 03:37:54;;;;;;;;;;;5.90;99.90;;;;;;4990624;28;20011;-64
2021/12/31 03:40:21;;;;;;;;;;;5.80;99.90;;;;;;4989081;28;20325;-69
2021/12/31 03:42:48;;;;;;;;;;;5.80;99.90;;;;;;4989678;28;19929;-65
2021/12/31 03:45:14;;;;;;;;;;;5.80;99.90;;;;;;4991866;28;19943;-66
2021/12/31 03:47:41;;;;;;;;;;;5.80;99.90;;;;;;4988775;28;19937;-67
2021/12/31 03:50:08;;;;;;;;;;;5.70;99.90;;;;;;4988806;28;20036;-68
2021/12/31 03:52:36;;;;;;;;;;;5.70;99.90;;;;;;4987480;28;21119;-68
2021/12/31 03:55:04;;;;;;;;;;;5.70;99.90;;;;;;4991391;28;20013;-68
2021/12/31 03:57:31;;;;;;;;;;;5.70;99.90;;;;;;4990069;28;20012;-66
2021/12/31 03:59:57;;;;;;;;;;;5.70;99.90;;;;;;4991026;28;19929;-69
2021/12/31 04:02:24;;;;;;;;;;;5.70;99.90;;;;;;4988048;28;19940;-68
2021/12/31 04:04:51;;;;;;;;;;;5.70;99.90;;;;;;4991186;28;20711;-67
2021/12/31 04:07:19;;;;;;;;;;;5.60;99.90;;;;;;4988576;28;19929;-66
2021/12/31 04:09:46;;;;;;;;;;;5.70;99.90;;;;;;4993267;28;19988;-68
2021/12/31 04:12:13;;;;;;;;;;;5.60;99.90;;;;;;4989650;28;19929;-66
2021/12/31 04:14:39;;;;;;;;;;;5.60;99.90;;;;;;4986808;28;20063;-69
2021/12/31 04:17:06;;;;;;;;;;;5.70;99.90;;;;;;4988843;28;20163;-66
2021/12/31 04:19:33;;;;;;;;;;;5.60;99.90;;;;;;4988980;28;20067;-66
2021/12/31 04:22:00;;;;;;;;;;;5.60;99.90;;;;;;4989328;28;19929;-66
2021/12/31 04:24:52;;;;;;;;;;;5.60;99.90;;;;;;4989788;28;19929;-66
2021/12/31 04:27:17;;;;;;;;;;;5.60;99.90;;;;;;4987792;28;19945;-69
2021/12/31 04:29:50;;;;;;;;;;;5.60;99.90;;;;;;4986137;28;19929;-69
2021/12/31 04:32:18;;;;;;;;;;;5.50;99.90;;;;;;4988350;28;19968;-67
2021/12/31 04:34:45;;;;;;;;;;;5.60;99.90;;;;;;4984652;28;20377;-68
2021/12/31 04:37:12;;;;;;;;;;;5.50;99.90;;;;;;4991054;28;19958;-65
2021/12/31 04:39:39;;;;;;;;;;;5.50;99.90;;;;;;4991730;28;19936;-67
2021/12/31 04:42:06;;;;;;;;;;;5.50;99.90;;;;;;4993486;28;21522;-65
2021/12/31 04:44:32;;;;;;;;;;;5.50;99.90;;;;;;4993520;28;21345;-65
2021/12/31 04:46:59;;;;;;;;;;;5.50;99.90;;;;;;4990752;28;19969;-66
2021/12/31 04:49:26;;;;;;;;;;;5.50;99.90;;;;;;4995922;28;20023;-68
2021/12/31 04:51:53;;;;;;;;;;;5.50;99.90;;;;;;4989097;28;20135;-68
2021/12/31 04:54:20;;;;;;;;;;;5.50;99.90;;;;;;4995257;28;19934;-65
2021/12/31 04:56:51;;;;;;;;;;;5.50;99.90;;;;;;4991350;28;19925;-68
2021/12/31 04:59:19;;;;;;;;;;;5.50;99.90;;;;;;4993538;28;19934;-67
2021/12/31 05:01:47;;;;;;;;;;;5.50;99.90;;;;;;4990390;28;20445;-68
2021/12/31 05:04:15;;;;;;;;;;;5.60;99.90;;;;;;4992353;28;19935;-65
2021/12/31 05:06:42;;;;;;;;;;;5.60;99.90;;;;;;4990167;28;19936;-65
2021/12/31 05:09:10;;;;;;;;;;;5.60;99.90;;;;;;4990019;28;19937;-69
2021/12/31 05:11:37;;;;;;;;;;;5.70;99.90;;;;;;4992028;28;20314;-64
2021/12/31 05:14:04;;;;;;;;;;;5.70;99.90;;;;;;4992916;28;20995;-66
2021/12/31 05:16:31;;;;;;;;;;;5.70;99.90;;;;;;4992524;28;20008;-66
2021/12/31 05:18:58;;;;;;;;;;;5.70;99.90;;;;;;4995160;28;20060;-64
2021/12/31 05:21:25;;;;;;;;;;;5.80;99.90;;;;;;4993216;28;21449;-65
2021/12/31 05:23:52;;;;;;;;;;;5.80;99.90;;;;;;4994207;28;20035;-65
2021/12/31 05:26:18;;;;;;;;;;;5.80;99.90;;;;;;4991855;28;19976;-66
2021/12/31 05:28:45;;;;;;;;;;;5.80;99.90;;;;;;4994305;28;21261;-65
2021/12/31 05:31:12;;;;;;;;;;;5.80;99.90;;;;;;4992840;28;19998;-68
2021/12/31 05:33:39;;;;;;;;;;;5.80;99.90;;;;;;4991618;28;20055;-68
2021/12/31 05:36:06;;;;;;;;;;;5.90;99.90;;;;;;4992547;28;19999;-64
2021/12/31 05:38:33;;;;;;;;;;;5.90;99.90;;;;;;4989002;28;19955;-66
2021/12/31 05:41:00;;;;;;;;;;;5.90;99.90;;;;;;4991072;28;19929;-66
2021/12/31 05:43:26;;;;;;;;;;;6.00;99.90;;;;;;4989067;28;19929;-69
2021/12/31 05:45:53;;;;;;;;;;;6.00;99.90;;;;;;4990652;28;20005;-68
2021/12/31 05:48:23;;;;;;;;;;;6.00;99.90;;;;;;4988230;28;19937;-67
2021/12/31 05:50:50;;;;;;;;;;;6.00;99.90;;;;;;4991712;28;20028;-66
2021/12/31 05:53:17;;;;;;;;;;;6.00;99.90;;;;;;4993185;28;19996;-65
2021/12/31 05:55:44;;;;;;;;;;;6.00;99.90;;;;;;4990220;28;20068;-66
2021/12/31 05:58:10;;;;;;;;;;;6.00;99.90;;;;;;4992671;28;20098;-67
2021/12/31 06:00:37;;;;;;;;;;;6.00;99.90;;;;;;4989536;28;19933;-66
2021/12/31 06:03:04;;;;;;;;;;;6.00;99.90;;;;;;4991086;28;19951;-67
2021/12/31 06:05:31;;;;;;;;;;;6.00;99.90;;;;;;4989480;28;20363;-69
2021/12/31 06:07:59;;;;;;;;;;;6.00;99.90;;;;;;4990088;28;19968;-69
2021/12/31 06:10:26;;;;;;;;;;;6.00;99.90;;;;;;4987869;28;21503;-68
2021/12/31 06:12:56;;;;;;;;;;;6.00;99.90;;;;;;4993769;28;19933;-70
2021/12/31 06:15:25;;;;;;;;;;;6.00;99.90;;;;;;4992281;28;20027;-67
2021/12/31 06:17:52;;;;;;;;;;;6.00;99.90;;;;;;4991624;28;20232;-69
2021/12/31 06:20:18;;;;;;;;;;;6.00;99.90;;;;;;4990760;28;20035;-66
2021/12/31 06:22:45;;;;;;;;;;;6.00;99.90;;;;;;4988153;28;19933;-66
2021/12/31 06:25:12;;;;;;;;;;;6.00;99.90;;;;;;4988910;28;19984;-68
2021/12/31 06:27:39;;;;;;;;;;;6.00;99.90;;;;;;4989418;28;20343;-67
2021/12/31 06:30:06;;;;;;;;;;;6.00;99.90;;;;;;4989341;28;20366;-71
2021/12/31 06:32:33;;;;;;;;;;;6.00;99.90;;;;;;4987685;28;19969;-67
2021/12/31 06:35:00;;;;;;;;;;;6.10;99.90;;;;;;4992587;28;19945;-66
2021/12/31 06:37:27;;;;;;;;;;;6.10;99.90;;;;;;4991238;28;19929;-65
2021/12/31 06:39:54;;;;;;;;;;;6.10;99.90;;;;;;4991518;28;20480;-66
2021/12/31 06:42:21;;;;;;;;;;;6.10;99.90;;;;;;4991901;28;19930;-65
2021/12/31 06:44:48;;;;;;;;;;;6.10;99.90;;;;;;4988531;28;20012;-64
2021/12/31 06:47:15;;;;;;;;;;;6.10;99.90;;;;;;4992547;28;19925;-68
2021/12/31 06:49:42;;;;;;;;;;;6.10;99.90;;;;;;4990408;28;20297;-68
2021/12/31 06:52:09;;;;;;;;;;;6.10;99.90;;;;;;4991631;28;19933;-67
2021/12/31 06:54:36;;;;;;;;;;;6.10;99.90;;;;;;4989157;28;19936;-66
2021/12/31 06:57:04;;;;;;;;;;;6.10;99.90;;;;;;4992923;28;19929;-66
2021/12/31 06:59:31;;;;;;;;;;;6.10;99.90;;;;;;4990378;28;19972;-65
2021/12/31 07:01:57;;;;;;;;;;;6.10;99.90;;;;;;4989182;28;19925;-68
2021/12/31 07:04:25;;;;;;;;;;;6.10;99.90;;;;;;4990498;28;19933;-66
2021/12/31 07:06:52;;;;;;;;;;;6.10;99.90;;;;;;4990644;28;19972;-64
2021/12/31 07:09:28;;;;;;;;;;;6.10;99.90;;;;;;4986779;28;19933;-68
2021/12/31 07:11:54;;;;;;;;;;;6.10;99.90;;;;;;4991541;28;19929;-66
2021/12/31 07:14:21;;;;;;;;;;;6.10;99.90;;;;;;4990343;28;22062;-66
2021/12/31 07:16:49;;;;;;;;;;;6.10;99.90;;;;;;4988890;28;19929;-66
2021/12/31 07:19:16;;;;;;;;;;;6.10;99.90;;;;;;4991116;28;20011;-67
2021/12/31 07:21:43;;;;;;;;;;;6.10;99.90;;;;;;4993188;28;20420;-64
2021/12/31 07:24:10;;;;;;;;;;;6.10;99.90;;;;;;4992445;28;20783;-65
2021/12/31 07:26:37;;;;;;;;;;;6.10;99.90;;;;;;4984118;28;19960;-67
2021/12/31 07:29:03;;;;;;;;;;;6.10;99.90;;;;;;4989064;28;20009;-65
2021/12/31 07:31:30;;;;;;;;;;;6.10;99.90;;;;;;4991448;28;20011;-67
2021/12/31 07:33:57;;;;;;;;;;;6.10;99.90;;;;;;4987970;28;19930;-67
2021/12/31 07:36:25;;;;;;;;;;;6.10;99.90;;;;;;4988713;28;19941;-66
2021/12/31 07:38:59;;;;;;;;;;;6.00;99.90;;;;;;4990247;28;19995;-67
2021/12/31 07:41:26;;;;;;;;;;;6.00;99.90;;;;;;4992146;28;19948;-69
2021/12/31 07:43:53;;;;;;;;;;;6.00;99.90;;;;;;4991021;28;21317;-66
2021/12/31 07:46:20;;;;;;;;;;;6.00;99.90;;;;;;4990106;28;19937;-67
2021/12/31 07:48:47;;;;;;;;;;;6.00;99.90;;;;;;4989379;28;19952;-67
2021/12/31 07:51:14;;;;;;;;;;;6.10;99.90;;;;;;4990351;28;19968;-67
2021/12/31 07:53:41;;;;;;;;;;;6.00;99.90;;;;;;4991453;28;19933;-67
2021/12/31 07:56:08;;;;;;;;;;;6.00;99.90;;;;;;4988713;28;19929;-66
2021/12/31 07:58:35;;;;;;;;;;;6.10;99.90;;;;;;4988767;28;19996;-66
2021/12/31 08:01:01;;;;;;;;;;;6.10;99.90;;;;;;4989476;28;19940;-66
2021/12/31 08:03:29;;;;;;;;;;;6.10;99.90;;;;;;4990260;28;20043;-66
2021/12/31 08:05:55;;;;;;;;;;;6.10;99.90;;;;;;4990957;28;20383;-67
2021/12/31 08:08:22;;;;;;;;;;;6.10;99.90;;;;;;4989850;28;19989;-68
2021/12/31 08:10:49;;;;;;;;;;;6.10;99.90;;;;;;4990537;28;20386;-66
2021/12/31 08:13:22;;;;;;;;;;;6.10;99.90;;;;;;4989817;28;19984;-66
2021/12/31 08:15:49;;;;;;;;;;;6.10;99.90;;;;;;4987884;28;19960;-66
2021/12/31 08:18:16;;;;;;;;;;;6.10;99.90;;;;;;4989208;28;20012;-67
2021/12/31 08:20:42;;;;;;;;;;;6.20;99.90;;;;;;4987348;28;19929;-67
2021/12/31 08:23:10;;;;;;;;;;;6.20;99.90;;;;;;4992114;28;20353;-68
2021/12/31 08:25:37;;;;;;;;;;;6.30;99.90;;;;;;4991587;28;19965;-70
2021/12/31 08:28:04;;;;;;;;;;;6.30;99.90;;;;;;4990033;28;20393;-66
2021/12/31 08:30:31;;;;;;;;;;;6.30;99.90;;;;;;4989955;28;20649;-68
2021/12/31 08:32:58;;;;;;;;;;;6.30;99.90;;;;;;4988592;28;20047;-65
2021/12/31 08:35:25;;;;;;;;;;;6.30;99.90;;;;;;4988448;28;20060;-68
2021/12/31 08:37:52;;;;;;;;;;;6.30;99.90;;;;;;4988138;28;20137;-67
2021/12/31 08:40:20;;;;;;;;;;;6.30;99.90;;;;;;4989910;28;20028;-66
2021/12/31 08:42:47;;;;;;;;;;;6.40;99.90;;;;;;4990099;28;19925;-67
2021/12/31 08:45:16;;;;;;;;;;;6.40;99.90;;;;;;4990794;28;19937;-68
2021/12/31 08:47:43;;;;;;;;;;;6.40;99.90;;;;;;4988542;28;19964;-69
2021/12/31 08:50:10;;;;;;;;;;;6.40;99.90;;;;;;4990810;28;19953;-67
2021/12/31 08:52:37;;;;;;;;;;;6.40;99.90;;;;;;4987197;28;19929;-70
2021/12/31 08:55:05;;;;;;;;;;;6.40;99.90;;;;;;4991290;28;19929;-67
2021/12/31 08:57:32;;;;;;;;;;;6.40;99.90;;;;;;4989669;28;19929;-65
2021/12/31 08:59:58;;;;;;;;;;;6.50;99.90;;;;;;4990380;28;21010;-68
2021/12/31 09:02:25;;;;;;;;;;;6.50;99.90;;;;;;4987002;28;19952;-67
2021/12/31 09:04:52;;;;;;;;;;;6.50;99.90;;;;;;4988046;28;19937;-66
2021/12/31 09:07:19;;;;;;;;;;;6.50;99.90;;;;;;4990581;28;19925;-67
2021/12/31 09:09:46;;;;;;;;;;;6.50;99.90;;;;;;4990080;28;20023;-68
2021/12/31 09:12:13;;;;;;;;;;;6.50;99.90;;;;;;4989754;28;19929;-65
2021/12/31 09:14:39;;;;;;;;;;;6.50;99.90;;;;;;4985695;28;20063;-66
2021/12/31 09:17:06;;;;;;;;;;;6.50;99.90;;;;;;4991366;28;19949;-66
2021/12/31 09:19:33;;;;;;;;;;;6.50;99.90;;;;;;4990794;28;21146;-67
2021/12/31 09:22:00;;;;;;;;;;;6.40;99.90;;;;;;4989656;28;19930;-66
2021/12/31 09:24:27;;;;;;;;;;;6.40;99.90;;;;;;4989566;28;20057;-67
2021/12/31 09:26:54;;;;;;;;;;;6.50;99.90;;;;;;4992045;28;19929;-67
2021/12/31 09:29:23;;;;;;;;;;;6.50;99.90;;;;;;4995871;28;19926;-68
2021/12/31 09:31:50;;;;;;;;;;;6.50;99.90;;;;;;4991323;28;20021;-65
2021/12/31 09:34:17;;;;;;;;;;;6.50;99.90;;;;;;4993344;28;20008;-69
2021/12/31 09:36:44;;;;;;;;;;;6.50;99.90;;;;;;4992276;28;19968;-67
2021/12/31 09:39:11;;;;;;;;;;;6.50;99.90;;;;;;4992191;28;19936;-66
2021/12/31 09:41:42;;;;;;;;;;;6.50;99.90;;;;;;4992661;28;19930;-67
2021/12/31 09:44:14;;;;;;;;;;;6.50;99.90;;;;;;4992485;28;19952;-66
2021/12/31 09:46:41;;;;;;;;;;;6.40;99.90;;;;;;4989814;28;19929;-68
2021/12/31 09:49:08;;;;;;;;;;;6.40;99.90;;;;;;4994200;28;20016;-65
2021/12/31 09:51:35;;;;;;;;;;;6.50;99.90;;;;;;4990984;28;19929;-65
2021/12/31 09:54:02;;;;;;;;;;;6.50;99.90;;;;;;4993777;28;19980;-66
2021/12/31 09:56:29;;;;;;;;;;;6.40;99.90;;;;;;4988867;28;20048;-67
2021/12/31 09:58:56;;;;;;;;;;;6.40;99.90;;;;;;4990314;28;19930;-69
2021/12/31 10:01:23;;;;;;;;;;;6.40;99.90;;;;;;4992306;28;20049;-67
2021/12/31 10:03:54;;;;;;;;;;;6.40;99.90;;;;;;4990862;28;19941;-67
2021/12/31 10:06:21;;;;;;;;;;;6.50;99.90;;;;;;4992344;28;20136;-66
2021/12/31 10:08:48;;;;;;;;;;;6.50;99.90;;;;;;4988630;28;20392;-66
2021/12/31 10:11:21;;;;;;;;;;;6.50;99.90;;;;;;4991383;28;19987;-65
2021/12/31 10:13:51;;;;;;;;;;;6.50;99.90;;;;;;4991093;28;19936;-67
2021/12/31 10:16:41;;;;;;;;;;;6.50;99.90;;;;;;4994034;28;19936;-68
2021/12/31 10:19:10;;;;;;;;;;;6.50;99.90;;;;;;4991153;28;19929;-66
2021/12/31 10:21:46;;;;;;;;;;;6.60;99.90;;;;;;4992478;28;20724;-67
2021/12/31 10:24:32;;;;;;;;;;;6.60;99.90;;;;;;4992361;28;19999;-69
2021/12/31 10:27:16;;;;;;;;;;;6.70;99.90;;;;;;4988528;28;19987;-67
2021/12/31 10:30:09;;;;;;;;;;;6.80;99.90;;;;;;4989092;28;19933;-67
2021/12/31 10:32:40;;;;;;;;;;;6.80;99.90;;;;;;4984762;28;20268;-65
2021/12/31 10:35:15;;;;;;;;;;;6.80;99.90;;;;;;4990576;28;19929;-66
2021/12/31 10:37:43;;;;;;;;;;;6.80;99.90;;;;;;4991751;28;20035;-68
2021/12/31 10:40:10;;;;;;;;;;;6.80;99.90;;;;;;4991584;28;19940;-68
2021/12/31 10:42:37;;;;;;;;;;;6.80;99.90;;;;;;4991329;28;19960;-67
2021/12/31 10:45:05;;;;;;;;;;;6.80;99.90;;;;;;4991303;28;20031;-67
2021/12/31 10:47:37;;;;;;;;;;;6.80;99.90;;;;;;4988921;28;19929;-65
2021/12/31 10:50:04;;;;;;;;;;;6.80;99.90;;;;;;4993425;28;19969;-66
2021/12/31 10:52:55;;;;;;;;;;;6.80;99.90;;;;;;4989725;28;20403;-67
2021/12/31 10:55:27;;;;;;;;;;;6.80;99.90;;;;;;4992147;28;20036;-65
2021/12/31 10:57:57;;;;;;;;;;;6.70;99.90;;;;;;4991864;28;19958;-67
2021/12/31 11:00:32;;;;;;;;;;;6.80;99.90;;;;;;4989883;28;19956;-68
2021/12/31 11:02:59;;;;;;;;;;;6.70;99.90;;;;;;4991945;28;19925;-67
2021/12/31 11:05:27;;;;;;;;;;;6.70;99.90;;;;;;4991578;28;19936;-67
2021/12/31 11:07:54;;;;;;;;;;;6.60;99.90;;;;;;4990457;28;19965;-64
2021/12/31 11:10:37;;;;;;;;;;;6.60;99.90;;;;;;4991499;28;20371;-65
2021/12/31 11:13:09;;;;;;;;;;;6.50;99.90;;;;;;4991771;28;19935;-65
2021/12/31 11:15:36;;;;;;;;;;;6.40;99.90;;;;;;4992314;28;21390;-66
2021/12/31 11:18:05;;;;;;;;;;;6.40;99.90;;;;;;4990611;28;19925;-66
2021/12/31 11:20:32;;;;;;;;;;;6.40;99.90;;;;;;4989823;28;20091;-67
2021/12/31 11:23:00;;;;;;;;;;;6.40;99.90;;;;;;4989685;28;19935;-68
2021/12/31 11:25:51;;;;;;;;;;;6.40;99.90;;;;;;4991733;28;19947;-65
2021/12/31 11:28:27;;;;;;;;;;;6.40;99.90;;;;;;4991584;28;19937;-66
2021/12/31 11:30:56;;;;;;;;;;;6.40;99.90;;;;;;4988193;28;19968;-67
2021/12/31 11:33:26;;;;;;;;;;;6.40;99.90;;;;;;4993279;28;19929;-67
2021/12/31 11:35:55;;;;;;;;;;;6.40;99.90;;;;;;4990251;28;20038;-64
2021/12/31 11:38:22;;;;;;;;;;;6.40;99.90;;;;;;4990809;28;20678;-66
2021/12/31 11:41:01;;;;;;;;;;;6.30;99.90;;;;;;4990180;28;19964;-68
2021/12/31 11:43:28;;;;;;;;;;;6.30;99.90;;;;;;4990770;28;20610;-65
2021/12/31 11:48:51;;;;;;;;;;;6.40;99.90;;;;;;4988886;28;19933;-66
2021/12/31 11:51:21;;;;;;;;;;;6.40;99.90;;;;;;4992722;28;19983;-67
2021/12/31 11:54:00;;;;;;;;;;;6.40;99.90;;;;;;4989500;28;19929;-64
2021/12/31 11:56:36;;;;;;;;;;;6.40;99.90;;;;;;4989354;28;20032;-67
2021/12/31 11:59:09;;;;;;;;;;;6.40;99.90;;;;;;4989309;28;19941;-64
2021/12/31 12:01:36;;;;;;;;;;;6.40;99.90;;;;;;4991103;28;19933;-66
2021/12/31 12:04:22;;;;;;;;;;;6.40;99.90;;;;;;4992264;28;19929;-67
2021/12/31 12:06:52;;;;;;;;;;;6.40;99.90;;;;;;4987698;28;19930;-67
2021/12/31 12:09:20;;;;;;;;;;;6.40;99.90;;;;;;4991706;28;19936;-70
2021/12/31 12:11:59;;;;;;;;;;;6.30;99.90;;;;;;4988049;28;19969;-67
2021/12/31 12:14:27;;;;;;;;;;;6.40;99.90;;;;;;4989131;28;20087;-69
2021/12/31 12:16:56;;;;;;;;;;;6.40;99.90;;;;;;4988912;28;19929;-67
2021/12/31 12:19:42;;;;;;;;;;;6.40;99.90;;;;;;4989566;28;19933;-66
2021/12/31 12:22:09;;;;;;;;;;;6.40;99.90;;;;;;4992350;28;19933;-69
2021/12/31 12:24:36;;;;;;;;;;;6.40;99.90;;;;;;4985863;28;19929;-68
2021/12/31 12:27:03;;;;;;;;;;;6.40;99.90;;;;;;4991115;28;19933;-66
2021/12/31 12:29:30;;;;;;;;;;;6.50;99.90;;;;;;4989574;28;19929;-65
2021/12/31 12:32:10;;;;;;;;;;;6.50;99.90;;;;;;4990735;28;20302;-66
2021/12/31 12:34:37;;;;;;;;;;;6.50;99.90;;;;;;4986600;28;19984;-66
2021/12/31 12:37:04;;;;;;;;;;;6.50;99.90;;;;;;4990248;28;19955;-64
2021/12/31 12:39:31;;;;;;;;;;;6.50;99.90;;;;;;4990843;28;19925;-67
2021/12/31 12:41:58;;;;;;;;;;;6.50;99.90;;;;;;4990185;28;20460;-67
2021/12/31 12:44:25;;;;;;;;;;;6.50;99.90;;;;;;4988578;28;20040;-67
2021/12/31 12:46:56;;;;;;;;;;;6.60;99.90;;;;;;4988659;28;19933;-66
2021/12/31 12:49:24;;;;;;;;;;;6.50;99.90;;;;;;4991079;28;20124;-65
2021/12/31 12:51:51;;;;;;;;;;;6.60;99.90;;;;;;4989161;28;20119;-67
2021/12/31 12:54:21;;;;;;;;;;;6.60;99.90;;;;;;4989624;28;20048;-66
2021/12/31 12:56:50;;;;;;;;;;;6.60;99.90;;;;;;4987544;28;19929;-66
2021/12/31 12:59:21;;;;;;;;;;;6.60;99.90;;;;;;4990330;28;20438;-67
2021/12/31 13:01:49;;;;;;;;;;;6.60;99.90;;;;;;4993977;28;19937;-67
2021/12/31 13:04:17;;;;;;;;;;;6.70;99.90;;;;;;4993425;28;19937;-68
2021/12/31 13:06:54;;;;;;;;;;;6.70;99.90;;;;;;4993525;28;20097;-66
2021/12/31 13:09:23;;;;;;;;;;;6.60;99.90;;;;;;4993493;28;19925;-68
2021/12/31 13:11:53;;;;;;;;;;;6.60;99.90;;;;;;4993361;28;19933;-67
2021/12/31 13:14:22;;;;;;;;;;;6.60;99.90;;;;;;4992412;28;20051;-68
2021/12/31 13:16:50;;;;;;;;;;;6.60;99.90;;;;;;4991437;28;19936;-66
2021/12/31 13:19:26;;;;;;;;;;;6.60;99.90;;;;;;4993149;28;19995;-66
2021/12/31 13:21:56;;;;;;;;;;;6.60;99.90;;;;;;4992202;28;20013;-67
2021/12/31 13:24:24;;;;;;;;;;;6.60;99.90;;;;;;4992625;28;20448;-65
2021/12/31 13:26:52;;;;;;;;;;;6.60;99.90;;;;;;4993077;28;20040;-68
2021/12/31 13:29:29;;;;;;;;;;;6.70;99.90;;;;;;4994321;28;20075;-66
2021/12/31 13:32:03;;;;;;;;;;;6.70;99.90;;;;;;4993542;28;20550;-67
2021/12/31 13:34:37;;;;;;;;;;;6.70;99.90;;;;;;4990777;28;19929;-66
2021/12/31 13:37:04;;;;;;;;;;;6.80;99.90;;;;;;4993448;28;20000;-66
2021/12/31 13:39:32;;;;;;;;;;;6.80;99.90;;;;;;4993484;28;20004;-68
2021/12/31 13:42:00;;;;;;;;;;;6.80;99.90;;;;;;4991802;28;19925;-70
2021/12/31 13:44:34;;;;;;;;;;;6.80;99.90;;;;;;4987518;28;19930;-66
2021/12/31 13:47:03;;;;;;;;;;;6.90;99.90;;;;;;4992618;28;19945;-67
2021/12/31 13:49:32;;;;;;;;;;;6.90;99.90;;;;;;4988083;28;20047;-66
2021/12/31 13:51:59;;;;;;;;;;;6.90;99.90;;;;;;4988735;28;20023;-68
2021/12/31 13:54:38;;;;;;;;;;;6.90;99.90;;;;;;4990037;28;19926;-69
2021/12/31 13:57:16;;;;;;;;;;;6.80;99.90;;;;;;4989956;28;19929;-66
2021/12/31 13:59:43;;;;;;;;;;;6.90;99.90;;;;;;4992202;28;20410;-66
2021/12/31 14:02:11;;;;;;;;;;;6.80;99.90;;;;;;4987530;28;19929;-64
2021/12/31 14:04:54;;;;;;;;;;;6.80;99.90;;;;;;4992198;28;20366;-66
2021/12/31 14:07:29;;;;;;;;;;;6.80;99.90;;;;;;4993721;28;19937;-65
2021/12/31 14:09:57;;;;;;;;;;;6.80;99.90;;;;;;4988674;28;19976;-65
2021/12/31 14:12:27;;;;;;;;;;;6.80;99.90;;;;;;4990503;28;20495;-65
2021/12/31 14:14:54;;;;;;;;;;;6.80;99.90;;;;;;4990944;28;19930;-68
2021/12/31 14:17:21;;;;;;;;;;;6.80;99.90;;;;;;4989738;28;19929;-67
2021/12/31 14:19:48;;;;;;;;;;;6.80;99.90;;;;;;4990147;28;20297;-69
2021/12/31 14:22:14;;;;;;;;;;;6.80;99.90;;;;;;4993310;28;19951;-67
2021/12/31 14:24:41;;;;;;;;;;;6.90;99.90;;;;;;4988150;28;20572;-66
2021/12/31 14:27:08;;;;;;;;;;;6.80;99.90;;;;;;4992794;28;19936;-67
2021/12/31 14:29:35;;;;;;;;;;;6.80;99.90;;;;;;4988549;28;20040;-69
2021/12/31 14:32:03;;;;;;;;;;;6.70;99.90;;;;;;4991551;28;20280;-67
2021/12/31 14:34:31;;;;;;;;;;;6.70;99.90;;;;;;4987912;28;20499;-67
2021/12/31 14:37:07;;;;;;;;;;;6.70;99.90;;;;;;5005666;28;19929;-65
2021/12/31 14:39:36;;;;;;;;;;;6.70;99.90;;;;;;4992441;28;19986;-69
2021/12/31 14:42:04;;;;;;;;;;;6.70;99.90;;;;;;4990463;28;19956;-65
2021/12/31 14:44:31;;;;;;;;;;;6.70;99.90;;;;;;4991899;28;20033;-64